Time;durP1;ratioP1;P1;durP2;ratioP2;P2;SDS_P1;SDS_P2;PMS_P1;PMS_P2;Temp;Humidity;BMP_temperature;BMP_pressure;BME280_temperature;BME280_humidity;BME280_pressure;Samples;Min_cycle;Max_cycle;Signal;HPM_P1;HPM_P2
2021/12/04 00:02:01;;;;;;;88.27;32.13;;;;;;;9.41;65.21;100056.19;4973822;29;20047;-62
2021/12/04 00:04:32;;;;;;;80.65;31.10;;;;;;;10.15;63.03;100049.22;4973567;29;20350;-63
2021/12/04 00:06:58;;;;;;;75.57;29.15;;;;;;;9.72;64.16;100038.13;4941974;29;20046;-64
2021/12/04 00:09:24;;;;;;;84.55;29.02;;;;;;;10.53;61.82;100034.13;4956725;29;20031;-63
2021/12/04 00:12:22;;;;;;;86.40;30.67;;;;;;;10.46;61.86;100031.84;4956714;29;20032;-64
2021/12/04 00:14:41;;;;;;;88.80;31.50;;;;;;;10.27;62.16;100028.59;4970039;29;20039;-62
2021/12/04 00:17:07;;;;;;;86.13;31.70;;;;;;;10.06;62.70;100031.16;4956558;29;20464;-64
2021/12/04 00:19:34;;;;;;;83.95;30.13;;;;;;;10.26;62.12;100030.53;4956884;29;20035;-63
2021/12/04 00:22:00;;;;;;;85.28;30.15;;;;;;;9.85;64.06;100012.59;4973521;29;20039;-62
2021/12/04 00:24:27;;;;;;;99.63;30.77;;;;;;;10.22;62.59;100013.13;4956271;29;20096;-64
2021/12/04 00:26:53;;;;;;;86.78;30.70;;;;;;;10.55;61.70;100003.63;4973489;29;20046;-64
2021/12/04 00:29:20;;;;;;;88.68;30.83;;;;;;;9.46;64.63;100007.94;4972112;29;20472;-62
2021/12/04 00:31:50;;;;;;;90.45;31.13;;;;;;;9.70;63.67;100008.34;4972349;29;20023;-63
2021/12/04 00:34:17;;;;;;;91.57;31.30;;;;;;;9.80;64.24;100001.78;4956010;29;20094;-62
2021/12/04 00:50:05;;;;;;;84.38;29.80;;;;;;;10.46;61.59;100001.72;4973280;29;20097;-62
2021/12/04 00:52:31;;;;;;;87.10;28.77;;;;;;;10.33;61.80;100002.69;4955670;29;20082;-64
2021/12/04 00:54:56;;;;;;;95.07;30.67;;;;;;;10.96;60.16;100008.59;4973055;29;20031;-64
2021/12/04 00:57:22;;;;;;;88.90;31.92;;;;;;;10.56;61.60;100017.00;4955808;29;20061;-61
2021/12/04 00:59:48;;;;;;;87.40;30.02;;;;;;;10.44;61.56;100005.91;4955767;29;20031;-65
2021/12/04 01:02:14;;;;;;;98.85;32.83;;;;;;;10.97;60.97;100009.41;4971432;29;20037;-63
2021/12/04 01:04:39;;;;;;;90.72;29.70;;;;;;;10.29;62.33;100001.69;4972835;29;20039;-64
2021/12/04 01:07:04;;;;;;;90.88;29.92;;;;;;;10.43;62.20;100001.56;4955963;29;20034;-62
2021/12/04 01:09:30;;;;;;;107.90;32.15;;;;;;;9.75;64.08;100000.00;4955602;29;20094;-61
2021/12/04 01:11:56;;;;;;;97.10;30.23;;;;;;;10.38;62.11;99993.50;4972146;28;20026;-64
2021/12/04 01:14:26;;;;;;;93.10;31.05;;;;;;;10.52;62.39;99992.19;4972570;29;20039;-63
2021/12/04 01:16:52;;;;;;;99.85;33.58;;;;;;;10.20;63.17;99993.47;4972847;29;20062;-63
2021/12/04 01:19:19;;;;;;;97.90;30.55;;;;;;;11.05;60.34;99987.41;4939342;29;20054;-61
2021/12/04 01:21:45;;;;;;;97.13;31.50;;;;;;;11.32;59.30;99977.16;4940026;29;20098;-63
2021/12/04 01:24:11;;;;;;;108.67;32.40;;;;;;;10.07;63.55;99972.50;4972845;29;20050;-62
2021/12/04 01:26:37;;;;;;;102.55;31.60;;;;;;;10.45;62.31;99971.88;4972288;29;20306;-63
2021/12/04 01:29:03;;;;;;;108.15;31.45;;;;;;;10.49;62.36;99970.13;4972684;29;20042;-64
2021/12/04 01:31:29;;;;;;;103.25;31.38;;;;;;;9.77;64.44;99972.31;4972332;29;20030;-61
2021/12/04 01:33:54;;;;;;;99.20;30.35;;;;;;;10.15;63.46;99964.31;4955869;29;20043;-61
2021/12/04 01:36:20;;;;;;;88.35;29.02;;;;;;;9.95;64.08;99949.28;4972204;29;20054;-63
2021/12/04 01:38:45;;;;;;;95.50;29.70;;;;;;;10.27;63.48;99949.16;4972787;29;20091;-62
2021/12/04 01:41:11;;;;;;;105.03;30.05;;;;;;;10.17;63.42;99950.28;4955534;29;20046;-61
2021/12/04 01:43:36;;;;;;;96.53;27.33;;;;;;;10.21;63.05;99948.50;4972100;29;20035;-62
2021/12/04 01:46:03;;;;;;;101.88;31.13;;;;;;;10.34;62.97;99961.28;4972672;29;20031;-62
2021/12/04 01:48:28;;;;;;;98.15;29.90;;;;;;;10.99;61.02;99964.06;4972254;29;20111;-62
2021/12/04 01:50:55;;;;;;;103.20;29.95;;;;;;;10.73;61.35;99971.53;4939785;29;20035;-63
2021/12/04 01:53:20;;;;;;;84.95;27.48;;;;;;;9.90;63.72;99971.34;4955216;29;20031;-62
2021/12/04 01:55:46;;;;;;;98.70;29.95;;;;;;;10.59;62.19;99960.75;4955466;29;20051;-61
2021/12/04 01:58:12;;;;;;;95.30;31.50;;;;;;;9.91;64.10;99958.47;4955564;29;20031;-63
2021/12/04 02:00:40;;;;;;;95.53;30.58;;;;;;;10.18;63.56;99962.84;4970913;29;20047;-64
2021/12/04 02:03:08;;;;;;;105.95;31.17;;;;;;;10.06;63.83;99958.00;4972437;29;20035;-62
2021/12/04 02:05:40;;;;;;;98.85;32.28;;;;;;;10.33;62.89;99948.69;4972017;29;20031;-63
2021/12/04 02:08:11;;;;;;;83.65;28.65;;;;;;;10.31;62.98;99939.97;4955949;29;20090;-66
2021/12/04 02:10:37;;;;;;;104.93;30.50;;;;;;;10.87;61.30;99942.00;4972025;29;20054;-61
2021/12/04 02:13:02;;;;;;;103.63;29.25;;;;;;;10.64;62.29;99942.22;4972264;29;20038;-62
2021/12/04 02:15:28;;;;;;;97.00;30.80;;;;;;;10.59;62.15;99939.63;4955172;29;20063;-61
2021/12/04 02:17:54;;;;;;;99.30;30.90;;;;;;;10.49;62.77;99934.50;4939510;29;20039;-64
2021/12/04 02:20:22;;;;;;;104.60;31.00;;;;;;;10.75;61.51;99937.19;4972184;29;20027;-63
2021/12/04 02:22:49;;;;;;;102.65;30.75;;;;;;;10.88;61.56;99940.84;4972017;28;20089;-63
2021/12/04 02:25:16;;;;;;;105.45;30.27;;;;;;;10.36;62.97;99940.97;4974764;29;20070;-61
2021/12/04 02:27:43;;;;;;;104.47;30.60;;;;;;;10.63;61.68;99946.09;4975385;29;20039;-63
2021/12/04 02:30:12;;;;;;;100.18;29.30;;;;;;;10.81;61.73;99952.31;4975686;29;20062;-64
2021/12/04 02:32:38;;;;;;;95.20;29.30;;;;;;;10.22;62.57;99947.38;4974921;28;20027;-62
2021/12/04 02:35:05;;;;;;;95.07;28.58;;;;;;;10.39;62.47;99946.59;4958660;29;20038;-61
2021/12/04 02:37:32;;;;;;;95.93;28.00;;;;;;;10.53;62.13;99933.53;4975178;29;20043;-61
2021/12/04 02:40:00;;;;;;;111.83;30.17;;;;;;;10.61;62.39;99934.66;4958739;29;20117;-65
2021/12/04 02:42:30;;;;;;;102.72;29.55;;;;;;;10.94;61.39;99933.25;4957940;29;20299;-63
2021/12/04 02:44:58;;;;;;;104.75;29.90;;;;;;;10.60;62.04;99941.25;4974461;29;20023;-66
2021/12/04 02:47:24;;;;;;;112.35;29.58;;;;;;;10.45;62.32;99936.25;4958286;29;20039;-64
2021/12/04 02:49:50;;;;;;;100.85;29.77;;;;;;;11.04;61.61;99935.66;4975286;29;20035;-62
2021/12/04 02:52:18;;;;;;;94.90;29.05;;;;;;;11.22;60.67;99939.13;4958113;29;20034;-63
2021/12/04 02:54:43;;;;;;;;;;;;;;;10.92;60.91;99935.53;4975385;29;20037;-61
2021/12/04 02:57:11;;;;;;;102.22;29.42;;;;;;;11.26;60.62;99934.56;4975144;29;19918;-65
2021/12/04 02:59:38;;;;;;;112.15;30.33;;;;;;;11.60;59.22;99932.81;4957797;29;20075;-64
2021/12/04 03:02:05;;;;;;;111.15;29.02;;;;;;;11.79;58.60;99930.41;4958188;29;20027;-65
2021/12/04 03:04:31;;;;;;;100.50;28.40;;;;;;;11.36;59.67;99936.97;4974641;29;20031;-63
2021/12/04 03:06:56;;;;;;;104.50;29.63;;;;;;;11.44;59.75;99936.13;4974060;29;20031;-63
2021/12/04 03:09:22;;;;;;;112.78;30.55;;;;;;;11.48;59.50;99929.97;4974940;29;20023;-62
2021/12/04 03:11:47;;;;;;;101.05;29.98;;;;;;;11.91;57.86;99928.88;4974632;29;20023;-62
2021/12/04 03:14:13;;;;;;;118.38;29.80;;;;;;;11.91;58.21;99921.44;4957853;29;20040;-63
2021/12/04 03:16:41;;;;;;;110.38;29.92;;;;;;;11.93;58.12;99912.88;4974535;29;20091;-63
2021/12/04 03:19:07;;;;;;;110.32;28.80;;;;;;;12.16;57.34;99910.63;4974851;29;20055;-64
2021/12/04 03:21:34;;;;;;;108.45;28.73;;;;;;;11.84;58.43;99910.19;4957166;29;20040;-63
2021/12/04 03:24:03;;;;;;;113.03;30.38;;;;;;;11.64;58.42;99906.28;4958247;29;20035;-62
2021/12/04 03:26:29;;;;;;;100.55;27.25;;;;;;;11.48;59.38;99899.78;4958056;29;20047;-64
2021/12/04 03:28:56;;;;;;;119.93;30.38;;;;;;;11.80;58.15;99896.34;4957633;29;20031;-61
2021/12/04 03:42:14;;;;;;;110.80;28.92;;;;;;;11.74;58.12;99885.84;4974448;29;20043;-64
2021/12/04 03:44:40;;;;;;;115.72;29.13;;;;;;;11.78;58.07;99882.13;4972606;29;20043;-63
2021/12/04 03:47:07;;;;;;;109.97;29.02;;;;;;;12.06;57.81;99883.56;4973397;29;20031;-64
2021/12/04 03:49:32;;;;;;;115.20;30.98;;;;;;;11.70;58.79;99872.00;4973790;29;20897;-63
2021/12/04 03:51:57;;;;;;;121.40;30.17;;;;;;;11.21;60.02;99877.16;4957344;29;20027;-63
2021/12/04 03:54:23;;;;;;;111.85;29.30;;;;;;;11.95;57.77;99866.69;4957148;29;20098;-64
2021/12/04 03:56:50;;;;;;;132.90;30.73;;;;;;;11.80;58.49;99870.78;4973712;29;20082;-64
2021/12/04 03:59:15;;;;;;;113.68;30.27;;;;;;;11.44;59.26;99875.72;4957520;29;20027;-62
2021/12/04 04:01:41;;;;;;;128.95;29.13;;;;;;;10.95;61.35;99869.06;4973580;29;20046;-64
2021/12/04 04:04:06;;;;;;;137.52;30.10;;;;;;;11.34;60.14;99854.19;4957000;29;20040;-62
2021/12/04 04:06:33;;;;;;;122.28;31.17;;;;;;;11.77;58.77;99855.81;4974126;29;20058;-62
2021/12/04 04:08:58;;;;;;;136.30;31.30;;;;;;;11.50;58.81;99868.13;4956572;29;20058;-60
2021/12/04 04:11:23;;;;;;;140.70;31.65;;;;;;;11.29;60.13;99862.56;4956822;29;20036;-64
2021/12/04 04:13:49;;;;;;;130.50;30.88;;;;;;;11.86;58.22;99863.16;4956264;29;20035;-63
2021/12/04 04:16:14;;;;;;;119.85;28.95;;;;;;;12.29;57.48;99860.03;4940899;29;20055;-62
2021/12/04 04:18:39;;;;;;;129.80;29.35;;;;;;;11.84;58.72;99854.47;4972461;28;20028;-62
2021/12/04 04:21:05;;;;;;;119.93;29.15;;;;;;;12.03;57.56;99851.28;4940925;29;20028;-65
2021/12/04 04:23:30;;;;;;;143.77;29.80;;;;;;;10.91;60.93;99857.94;4940564;29;20123;-64
2021/12/04 04:25:56;;;;;;;131.27;29.20;;;;;;;11.62;59.16;99837.19;4956326;29;20031;-62
2021/12/04 04:28:21;;;;;;;138.73;29.67;;;;;;;10.71;61.97;99854.00;4973473;29;20059;-62
2021/12/04 04:30:48;;;;;;;125.22;28.77;;;;;;;11.17;61.14;99849.59;4940264;29;20054;-62
2021/12/04 04:33:14;;;;;;;130.32;29.15;;;;;;;10.82;62.01;99849.75;4973438;29;20031;-62
2021/12/04 04:35:46;;;;;;;139.47;31.77;;;;;;;10.80;62.11;99845.72;4956207;29;20030;-62
2021/12/04 04:38:31;;;;;;;135.95;30.33;;;;;;;11.23;60.97;99842.78;4957440;29;20285;-63
2021/12/04 05:00:12;;;;;;;121.65;30.02;;;;;;;12.21;57.82;99818.94;4956998;29;20047;-62
2021/12/04 05:13:25;;;;;;;96.57;27.02;;;;;;;11.95;56.40;99809.78;4951824;29;20039;-63
2021/12/04 05:21:03;;;;;;;92.22;27.75;;;;;;;11.84;56.80;99805.03;4955602;29;20055;-62
2021/12/04 05:23:30;;;;;;;101.13;29.65;;;;;;;11.70;57.97;99805.31;4972696;29;20047;-62
2021/12/04 05:25:56;;;;;;;97.97;28.30;;;;;;;12.43;55.60;99810.28;4972308;29;20035;-61
2021/12/04 05:28:21;;;;;;;95.85;28.88;;;;;;;13.03;54.07;99796.13;4972488;28;20091;-63
2021/12/04 05:30:47;;;;;;;97.32;27.98;;;;;;;13.14;53.26;99790.91;4972437;29;20031;-65
2021/12/04 05:33:12;;;;;;;90.40;27.50;;;;;;;13.09;53.28;99802.97;4955628;29;20035;-63
2021/12/04 05:35:38;;;;;;;89.85;27.85;;;;;;;12.49;54.80;99806.16;4972671;29;20027;-63
2021/12/04 05:38:04;;;;;;;93.78;27.52;;;;;;;12.15;55.58;99801.84;4955646;29;20389;-65
2021/12/04 05:40:29;;;;;;;92.57;29.48;;;;;;;10.83;59.22;99802.03;4955679;29;20031;-65
2021/12/04 05:43:00;;;;;;;113.38;29.13;;;;;;;11.87;56.90;99799.66;4955243;29;20031;-64
2021/12/04 05:45:27;;;;;;;101.43;29.02;;;;;;;11.34;58.23;99807.53;4956466;29;20035;-66
2021/12/04 05:48:19;;;;;;;96.90;29.25;;;;;;;12.00;56.03;99797.81;4972263;29;20078;-63
2021/12/04 05:53:24;;;;;;;102.38;28.20;;;;;;;11.66;56.35;99785.97;4972312;29;20031;-65
2021/12/04 05:58:25;;;;;;;99.55;29.73;;;;;;;11.21;58.43;99790.16;4975777;28;20035;-63
2021/12/04 06:00:51;;;;;;;94.50;28.60;;;;;;;12.36;55.43;99788.06;4975864;29;20079;-63
2021/12/04 06:03:17;;;;;;;89.70;27.27;;;;;;;12.17;56.20;99785.84;4976268;29;20038;-63
2021/12/04 06:05:43;;;;;;;92.85;27.08;;;;;;;11.78;56.98;99774.22;4976152;29;20075;-61
2021/12/04 06:08:08;;;;;;;92.53;28.35;;;;;;;11.04;58.82;99785.59;4975711;29;20050;-63
2021/12/04 06:10:33;;;;;;;87.90;28.02;;;;;;;11.92;56.04;99780.25;4943076;29;20221;-63
2021/12/04 06:12:59;;;;;;;78.75;26.63;;;;;;;11.16;58.91;99786.81;4958641;29;20035;-64
2021/12/04 06:15:24;;;;;;;85.88;25.65;;;;;;;11.00;59.12;99779.16;4959070;29;20035;-63
2021/12/04 06:17:52;;;;;;;102.47;27.40;;;;;;;10.81;60.43;99782.34;4975597;29;20019;-63
2021/12/04 06:23:02;;;;;;;92.50;26.88;;;;;;;11.64;57.66;99776.47;4961096;29;20058;-64
2021/12/04 06:25:27;;;;;;;84.53;25.63;;;;;;;10.72;59.40;99770.59;4975780;29;20086;-63
2021/12/04 06:27:53;;;;;;;86.82;26.92;;;;;;;11.12;58.75;99781.22;4975456;29;20055;-63
2021/12/04 06:30:21;;;;;;;91.18;26.58;;;;;;;11.11;58.81;99770.56;4942989;29;20023;-63
2021/12/04 06:32:48;;;;;;;81.30;25.98;;;;;;;11.77;56.89;99769.88;4975631;29;20062;-63
2021/12/04 06:35:15;;;;;;;84.10;25.55;;;;;;;11.59;57.33;99782.94;4974641;29;20084;-63
2021/12/04 06:37:41;;;;;;;75.07;23.40;;;;;;;11.10;59.41;99790.91;4975611;29;20031;-63
2021/12/04 06:40:08;;;;;;;75.32;23.23;;;;;;;11.51;56.94;99775.59;4975147;29;20027;-63
2021/12/04 06:42:33;;;;;;;71.60;22.45;;;;;;;10.88;59.75;99779.06;4958364;29;20038;-61
2021/12/04 06:44:59;;;;;;;67.97;23.08;;;;;;;10.53;60.08;99776.53;4974983;29;20035;-65
2021/12/04 06:47:24;;;;;;;64.10;21.33;;;;;;;10.93;58.98;99781.66;4942396;29;20053;-63
2021/12/04 06:49:54;;;;;;;62.55;21.48;;;;;;;10.63;59.64;99781.63;4975394;29;20042;-64
2021/12/04 06:52:25;;;;;;;73.88;22.13;;;;;;;10.70;59.19;99786.59;4975374;29;20023;-62
2021/12/04 06:54:55;;;;;;;69.10;21.88;;;;;;;10.95;58.79;99782.09;4959248;29;20041;-62
2021/12/04 06:57:21;;;;;;;59.08;18.70;;;;;;;11.18;58.04;99774.41;4958873;29;20031;-61
2021/12/04 06:59:47;;;;;;;53.70;18.02;;;;;;;10.76;59.17;99781.75;4958404;29;20038;-64
2021/12/04 07:02:14;;;;;;;57.58;18.85;;;;;;;11.57;57.28;99774.25;4957698;29;20055;-62
2021/12/04 07:04:39;;;;;;;60.25;18.52;;;;;;;10.68;60.99;99781.44;4974076;29;20031;-62
2021/12/04 07:07:05;;;;;;;69.53;16.60;;;;;;;10.30;62.06;99782.19;4974621;29;20034;-63
2021/12/04 07:09:31;;;;;;;65.18;16.45;;;;;;;10.21;62.83;99775.94;4957391;29;20043;-63
2021/12/04 07:11:59;;;;;;;54.85;15.10;;;;;;;10.21;62.68;99781.41;4974729;29;20027;-62
2021/12/04 07:14:24;;;;;;;53.13;16.25;;;;;;;9.55;64.16;99779.75;4958134;29;20036;-62
2021/12/04 07:16:51;;;;;;;55.05;15.02;;;;;;;10.09;62.86;99773.09;4957740;29;20041;-62
2021/12/04 07:19:16;;;;;;;51.78;14.88;;;;;;;9.94;63.67;99766.16;4957378;29;20103;-62
2021/12/04 07:21:41;;;;;;;46.65;14.43;;;;;;;9.77;63.96;99772.50;4973554;29;20047;-63
2021/12/04 07:24:07;;;;;;;54.20;15.73;;;;;;;9.71;63.78;99768.31;4974312;29;20067;-64
2021/12/04 07:26:32;;;;;;;59.42;16.80;;;;;;;9.93;62.84;99781.81;4974449;29;20031;-66
2021/12/04 07:28:58;;;;;;;52.35;15.27;;;;;;;10.40;61.48;99769.31;4974214;29;20027;-63
2021/12/04 07:31:23;;;;;;;49.85;14.65;;;;;;;10.39;61.73;99762.22;4974523;29;20055;-62
2021/12/04 07:33:50;;;;;;;45.45;14.60;;;;;;;10.64;60.71;99749.53;4974258;29;20112;-62
2021/12/04 07:36:16;;;;;;;47.25;15.43;;;;;;;9.98;62.19;99754.25;4974103;29;20047;-63
2021/12/04 07:38:41;;;;;;;46.33;13.35;;;;;;;10.22;61.74;99747.41;4941638;29;20062;-63
2021/12/04 07:41:08;;;;;;;48.97;12.90;;;;;;;9.70;63.20;99744.81;4973025;29;20044;-62
2021/12/04 07:43:33;;;;;;;41.05;12.65;;;;;;;9.72;63.59;99739.78;4957223;29;20031;-62
2021/12/04 07:45:59;;;;;;;45.20;13.10;;;;;;;9.87;63.29;99742.03;4956060;28;20090;-62
2021/12/04 07:48:25;;;;;;;43.80;13.07;;;;;;;9.51;63.15;99732.25;4971066;29;20070;-62
2021/12/04 07:50:51;;;;;;;44.63;14.15;;;;;;;9.71;63.78;99719.84;4973791;29;20023;-62
2021/12/04 07:53:16;;;;;;;44.85;13.50;;;;;;;9.44;64.73;99726.47;4973195;29;20038;-64
2021/12/04 07:55:42;;;;;;;62.47;14.88;;;;;;;9.98;63.04;99724.13;4973157;29;20039;-64
2021/12/04 07:58:07;;;;;;;52.63;13.90;;;;;;;9.69;63.25;99716.63;4973062;29;20084;-63
2021/12/04 08:00:32;;;;;;;64.90;15.63;;;;;;;9.65;63.79;99715.66;4973434;29;20094;-63
2021/12/04 08:02:58;;;;;;;65.53;16.27;;;;;;;9.93;63.25;99709.81;4967140;29;20036;-63
2021/12/04 08:05:23;;;;;;;73.30;17.25;;;;;;;9.70;63.94;99706.47;4965591;29;20091;-63
2021/12/04 08:07:50;;;;;;;72.32;15.77;;;;;;;9.23;65.28;99707.19;4966955;29;20055;-63
2021/12/04 08:10:18;;;;;;;75.05;16.88;;;;;;;9.36;65.05;99708.16;4969368;29;20059;-63
2021/12/04 08:12:45;;;;;;;60.63;15.00;;;;;;;9.33;64.90;99706.06;4969473;29;20023;-62
2021/12/04 08:15:12;;;;;;;59.20;16.13;;;;;;;9.60;64.36;99708.44;4949727;29;20042;-62
2021/12/04 08:17:38;;;;;;;63.50;17.30;;;;;;;9.69;63.50;99715.81;4955661;29;20023;-62
2021/12/04 08:20:05;;;;;;;55.78;15.02;;;;;;;9.73;63.37;99717.59;4955316;29;20042;-62
2021/12/04 08:22:32;;;;;;;76.32;17.13;;;;;;;9.39;64.07;99712.97;4972504;29;20106;-62
2021/12/04 08:24:58;;;;;;;64.05;17.70;;;;;;;9.91;63.15;99720.28;4955953;29;20074;-62
2021/12/04 08:27:23;;;;;;;83.75;19.38;;;;;;;9.24;65.45;99726.00;4972359;29;20019;-64
2021/12/04 08:29:48;;;;;;;80.50;18.80;;;;;;;9.98;62.82;99737.03;4972603;29;20087;-63
2021/12/04 08:32:14;;;;;;;78.35;18.98;;;;;;;9.51;64.19;99736.94;4938099;29;20027;-64
2021/12/04 08:34:39;;;;;;;71.90;20.25;;;;;;;9.49;64.74;99736.47;4972880;29;20462;-63
2021/12/04 08:37:05;;;;;;;79.07;20.52;;;;;;;9.90;63.56;99733.19;4972388;29;20043;-61
2021/12/04 08:39:31;;;;;;;81.45;19.67;;;;;;;9.31;65.10;99722.00;4972723;29;20030;-64
2021/12/04 08:41:57;;;;;;;86.13;20.42;;;;;;;9.32;64.93;99718.09;4955337;29;20854;-63
2021/12/04 08:44:22;;;;;;;76.97;19.42;;;;;;;9.65;64.77;99714.88;4972454;29;20473;-64
2021/12/04 08:46:48;;;;;;;83.68;20.88;;;;;;;9.78;63.90;99719.34;4955727;29;20061;-63
2021/12/04 08:49:14;;;;;;;68.53;18.88;;;;;;;9.69;64.29;99718.56;4972323;29;20235;-61
2021/12/04 08:51:42;;;;;;;79.97;21.20;;;;;;;9.72;64.15;99709.69;4959251;29;20039;-61
2021/12/04 08:54:12;;;;;;;86.13;22.15;;;;;;;10.15;63.44;99706.84;4955610;29;20019;-63
2021/12/04 08:56:38;;;;;;;73.38;18.63;;;;;;;10.18;63.13;99705.41;4972298;29;20030;-62
2021/12/04 08:59:05;;;;;;;78.75;20.42;;;;;;;9.88;63.76;99707.25;4955657;29;20062;-61
2021/12/04 09:01:33;;;;;;;88.70;22.15;;;;;;;9.51;65.27;99698.63;4971837;29;20035;-62
2021/12/04 09:04:05;;;;;;;73.75;18.73;;;;;;;9.68;64.64;99703.28;4972501;29;20027;-64
2021/12/04 09:06:34;;;;;;;86.35;20.95;;;;;;;9.92;63.83;99700.78;4971992;29;20062;-66
2021/12/04 09:09:00;;;;;;;94.28;21.50;;;;;;;9.66;64.85;99703.59;4972589;29;20082;-63
2021/12/04 09:11:30;;;;;;;88.85;21.50;;;;;;;9.54;65.28;99692.50;4971820;29;20023;-62
2021/12/04 09:13:57;;;;;;;90.75;23.42;;;;;;;9.78;64.65;99691.97;4972180;29;20053;-62
2021/12/04 09:16:23;;;;;;;84.40;22.25;;;;;;;9.40;64.97;99698.97;4971952;29;20044;-62
2021/12/04 09:18:49;;;;;;;97.65;24.23;;;;;;;9.63;65.28;99696.03;4972086;29;20090;-62
2021/12/04 09:21:15;;;;;;;92.30;23.05;;;;;;;9.94;64.05;99689.50;4971974;29;20035;-64
2021/12/04 09:23:46;;;;;;;103.22;25.20;;;;;;;9.61;64.99;99690.09;4971961;29;20481;-64
2021/12/04 09:26:25;;;;;;;97.35;24.35;;;;;;;9.96;63.99;99690.81;4971515;29;20031;-62
2021/12/04 09:29:00;;;;;;;105.38;24.48;;;;;;;10.66;62.31;99679.56;4957319;29;20063;-61
2021/12/04 09:31:41;;;;;;;91.30;24.10;;;;;;;10.60;61.77;99672.66;4971089;28;20019;-62
2021/12/04 09:40:27;;;;;;;126.10;28.35;;;;;;;10.32;63.36;99653.97;4948153;29;20039;-61
2021/12/04 10:15:56;;;;;;;100.93;27.10;;;;;;;10.85;62.09;99618.78;4957482;29;20103;-61
2021/12/04 10:34:45;;;;;;;100.05;25.60;;;;;;;10.05;64.71;99610.56;4975102;29;20042;-63
2021/12/04 10:37:14;;;;;;;92.97;24.90;;;;;;;10.24;64.65;99618.34;4957921;29;20039;-64
2021/12/04 10:39:40;;;;;;;102.95;27.13;;;;;;;10.53;63.41;99617.59;4970793;29;20028;-62
2021/12/04 10:42:17;;;;;;;102.15;25.98;;;;;;;10.59;62.83;99626.41;4968651;29;20031;-62
2021/12/04 10:44:48;;;;;;;94.25;24.77;;;;;;;10.63;63.34;99628.13;4953734;29;20055;-61
2021/12/04 10:47:21;;;;;;;98.55;24.50;;;;;;;10.22;63.96;99626.91;4955137;28;20027;-64
2021/12/04 10:52:24;;;;;;;100.70;26.70;;;;;;;10.51;63.45;99620.66;4951092;29;20035;-62
2021/12/04 10:54:53;;;;;;;112.07;27.58;;;;;;;10.56;62.80;99622.38;4965556;29;20023;-61
2021/12/04 11:03:30;;;;;;;116.93;30.65;;;;;;;11.17;61.14;99605.44;4970664;29;20035;-65
2021/12/04 11:41:21;;;;;;;125.90;30.42;;;;;;;11.34;60.74;99533.16;4974278;29;20032;-62
2021/12/04 11:43:59;;;;;;;135.30;30.83;;;;;;;11.74;59.86;99527.00;4973892;29;20411;-63
2021/12/04 11:46:45;;;;;;;118.50;27.95;;;;;;;11.73;60.39;99525.38;4973119;29;20027;-62
2021/12/04 11:49:17;;;;;;;115.80;26.52;;;;;;;11.47;60.67;99511.19;4970694;29;20035;-64
2021/12/04 11:52:01;;;;;;;115.13;27.40;;;;;;;11.40;61.12;99518.03;4973507;28;20027;-63
2021/12/04 11:54:31;;;;;;;109.72;27.55;;;;;;;11.29;61.64;99519.63;4973849;28;20026;-64
2021/12/04 11:57:05;;;;;;;110.50;26.70;;;;;;;11.19;62.13;99517.31;4973019;29;20038;-67
2021/12/04 11:59:33;;;;;;;106.93;26.77;;;;;;;11.05;62.30;99518.41;4973515;29;20031;-63
2021/12/04 12:02:00;;;;;;;101.65;26.95;;;;;;;11.06;62.14;99511.81;4956903;29;20027;-62
2021/12/04 12:04:44;;;;;;;114.45;27.52;;;;;;;11.21;62.32;99515.03;4973683;29;20023;-65
2021/12/04 12:07:23;;;;;;;100.25;25.33;;;;;;;11.37;62.14;99520.66;4970316;28;20033;-62
2021/12/04 12:10:03;;;;;;;91.13;24.35;;;;;;;10.65;63.40;99527.19;4973384;29;20059;-63
2021/12/04 12:12:35;;;;;;;90.88;23.73;;;;;;;10.91;62.36;99528.88;4956198;29;20020;-64
2021/12/04 12:15:05;;;;;;;90.38;24.65;;;;;;;11.40;61.63;99523.53;4973864;29;20030;-64
2021/12/04 12:17:32;;;;;;;84.57;23.45;;;;;;;10.88;63.27;99518.59;4973061;29;20051;-62
2021/12/04 12:19:58;;;;;;;97.60;25.02;;;;;;;11.12;62.37;99512.41;4973628;29;20035;-63
2021/12/04 12:22:47;;;;;;;96.70;25.85;;;;;;;10.43;64.85;99505.63;4973397;29;20077;-65
2021/12/04 12:25:38;;;;;;;79.53;21.45;;;;;;;10.79;63.84;99512.41;4956554;29;20038;-64
2021/12/04 12:37:22;;;;;;;78.03;19.92;;;;;;;11.76;61.22;99496.47;4973599;29;20039;-64
2021/12/04 12:40:09;;;;;;;68.75;19.50;;;;;;;11.75;61.00;99495.63;4971498;29;20051;-62
2021/12/04 12:42:41;;;;;;;59.40;17.08;;;;;;;11.63;61.21;99498.41;4955075;29;20039;-63
2021/12/04 12:45:28;;;;;;;51.00;16.23;;;;;;;11.72;60.64;99499.06;4972464;28;20066;-64
2021/12/04 12:48:00;;;;;;;42.40;14.02;;;;;;;11.15;62.70;99491.69;4955388;29;20058;-66
2021/12/04 12:50:38;;;;;;;42.40;13.35;;;;;;;11.32;61.97;99487.97;4955543;29;20027;-64
2021/12/04 12:53:12;;;;;;;36.30;13.13;;;;;;;11.48;61.60;99488.09;4955585;29;20031;-65
2021/12/04 12:55:41;;;;;;;33.15;12.75;;;;;;;11.11;62.17;99482.56;4972427;29;20035;-65
2021/12/04 12:58:33;;;;;;;42.53;14.10;;;;;;;11.65;60.82;99479.63;4955689;29;20066;-64
2021/12/04 13:12:51;;;;;;;34.53;13.02;;;;;;;11.60;61.17;99477.13;4958067;29;20107;-64
2021/12/04 13:15:34;;;;;;;29.17;11.30;;;;;;;10.86;63.59;99472.34;4963665;29;20110;-64
2021/12/04 13:18:23;;;;;;;32.70;11.88;;;;;;;12.12;59.81;99470.09;4962258;29;20058;-64
2021/12/04 13:20:58;;;;;;;26.33;10.63;;;;;;;12.35;58.96;99470.41;4967054;29;20036;-64
2021/12/04 13:23:24;;;;;;;24.70;7.88;;;;;;;12.07;59.37;99473.88;4953501;29;20847;-63
2021/12/04 13:25:56;;;;;;;18.98;6.22;;;;;;;11.90;59.76;99485.91;4936425;29;20407;-63
2021/12/04 13:28:24;;;;;;;17.35;6.53;;;;;;;11.45;61.04;99492.31;4936481;29;20032;-64
2021/12/04 13:30:50;;;;;;;17.40;6.07;;;;;;;11.67;60.00;99490.28;4936058;29;20066;-64
2021/12/04 13:33:16;;;;;;;13.30;5.43;;;;;;;12.12;58.64;99492.91;4962628;29;20027;-66
2021/12/04 13:35:47;;;;;;;13.93;4.50;;;;;;;12.09;58.28;99496.34;4949872;29;20031;-64
2021/12/04 13:38:15;;;;;;;17.38;5.47;;;;;;;12.54;57.20;99489.00;4962636;29;20019;-64
2021/12/04 13:40:43;;;;;;;13.70;4.22;;;;;;;11.82;58.95;99491.53;4963469;29;20032;-64
2021/12/04 13:43:13;;;;;;;13.50;4.38;;;;;;;12.00;58.44;99501.16;4961158;29;20027;-64
2021/12/04 13:45:40;;;;;;;10.80;4.40;;;;;;;12.24;58.10;99499.50;4944896;29;20039;-64
2021/12/04 13:48:06;;;;;;;8.80;4.00;;;;;;;12.20;58.26;99504.09;4964396;29;20108;-65
2021/12/04 13:53:05;;;;;;;8.13;2.20;;;;;;;11.23;60.85;99510.00;4962448;29;20023;-62
2021/12/04 13:55:35;;;;;;;6.85;2.22;;;;;;;11.55;59.52;99507.56;4963626;29;20019;-64
2021/12/04 13:58:04;;;;;;;7.00;2.00;;;;;;;11.83;58.81;99506.84;4942591;29;20019;-62
2021/12/04 14:00:30;;;;;;;6.60;2.10;;;;;;;11.79;58.87;99513.03;4958663;29;20039;-65
2021/12/04 14:02:56;;;;;;;6.25;1.90;;;;;;;11.35;59.62;99514.72;4930298;29;20111;-62
2021/12/04 14:05:23;;;;;;;6.15;1.52;;;;;;;11.93;58.68;99511.91;4963454;29;20103;-67
2021/12/04 14:07:54;;;;;;;5.75;1.45;;;;;;;12.34;57.70;99515.50;4962784;29;20067;-65
2021/12/04 14:10:22;;;;;;;3.58;1.50;;;;;;;12.18;57.41;99520.91;4959415;29;20019;-64
2021/12/04 14:12:48;;;;;;;4.30;1.40;;;;;;;12.21;57.56;99524.94;4953863;29;20035;-66
2021/12/04 14:15:19;;;;;;;3.70;1.40;;;;;;;12.03;58.19;99516.94;4943992;29;20028;-65
2021/12/04 14:17:45;;;;;;;5.47;1.90;;;;;;;12.49;56.78;99527.72;4953460;29;20055;-64
2021/12/04 14:20:20;;;;;;;5.13;1.73;;;;;;;12.04;58.12;99528.72;4956622;29;20035;-63
2021/12/04 14:22:48;;;;;;;7.38;1.85;;;;;;;12.08;57.62;99533.19;4955947;29;20063;-63
2021/12/04 14:25:14;;;;;;;;;;;;;;;12.35;56.74;99533.59;4957081;29;20038;-65
2021/12/04 14:27:40;;;;;;;5.63;1.55;;;;;;;12.07;57.14;99539.81;4956665;29;19918;-64
2021/12/04 14:30:08;;;;;;;4.50;1.20;;;;;;;12.57;56.44;99542.50;4956253;29;20399;-64
2021/12/04 14:32:35;;;;;;;3.70;1.27;;;;;;;12.78;55.74;99550.56;4956597;29;20027;-62